createdAt,value
2022-10-21T00:00:09.693Z,67.72
2022-10-21T00:02:36.486Z,67.40
2022-10-21T00:05:04.238Z,67.52
2022-10-21T00:07:30.614Z,67.31
2022-10-21T00:09:56.943Z,67.49
2022-10-21T00:12:23.339Z,67.48
2022-10-21T00:14:52.531Z,67.32
2022-10-21T00:17:21.294Z,67.53
2022-10-21T00:19:47.607Z,67.43
2022-10-21T00:22:13.959Z,67.25
2022-10-21T00:24:40.291Z,67.30
2022-10-21T00:27:07.000Z,67.38
2022-10-21T00:29:33.395Z,67.42
2022-10-21T00:31:59.727Z,67.78
2022-10-21T00:34:30.668Z,67.40
2022-10-21T00:36:57.342Z,67.49
2022-10-21T00:39:23.677Z,67.38
2022-10-21T00:41:50.013Z,67.42
2022-10-21T00:44:16.503Z,67.56
2022-10-21T00:46:52.564Z,67.06
2022-10-21T00:49:33.802Z,67.32
2022-10-21T00:52:03.700Z,67.68
2022-10-21T00:54:31.331Z,67.43
2022-10-21T00:56:58.910Z,67.54
2022-10-21T00:59:29.731Z,67.61
2022-10-21T01:01:56.107Z,67.46
2022-10-21T01:04:23.110Z,67.42
2022-10-21T01:06:50.174Z,67.56
2022-10-21T01:09:18.909Z,67.46
2022-10-21T01:11:47.413Z,67.45
2022-10-21T01:14:45.215Z,67.72
2022-10-21T01:17:45.985Z,67.47
2022-10-21T01:20:38.813Z,67.53
2022-10-21T01:23:14.171Z,67.78
2022-10-21T01:26:17.706Z,67.65
2022-10-21T01:29:19.950Z,67.77
2022-10-21T01:31:48.874Z,67.86
2022-10-21T01:34:28.773Z,67.73
2022-10-21T01:37:01.175Z,67.87
2022-10-21T01:39:37.789Z,67.94
2022-10-21T01:42:20.767Z,68.19
2022-10-21T01:44:52.811Z,68.01
2022-10-21T01:47:31.323Z,68.04
2022-10-21T01:50:11.023Z,68.20
2022-10-21T01:52:41.210Z,68.14
2022-10-21T01:55:12.582Z,68.22
2022-10-21T01:57:46.863Z,68.24
2022-10-21T02:00:13.557Z,68.75
2022-10-21T02:02:45.971Z,68.36
2022-10-21T02:05:23.106Z,68.19
2022-10-21T02:07:50.741Z,68.57
2022-10-21T02:10:18.965Z,68.52
2022-10-21T02:12:47.877Z,68.38
2022-10-21T02:15:16.102Z,68.39
2022-10-21T02:17:47.950Z,68.75
2022-10-21T02:20:17.262Z,68.52
2022-10-21T02:22:46.832Z,68.38
2022-10-21T02:25:21.751Z,68.21
2022-10-21T02:27:49.053Z,68.40
2022-10-21T02:30:16.239Z,68.41
2022-10-21T02:33:11.460Z,68.29
2022-10-21T02:35:50.862Z,68.49
2022-10-21T02:38:31.740Z,68.31
2022-10-21T02:41:09.318Z,68.09
2022-10-21T02:43:41.234Z,68.03
2022-10-21T02:46:10.458Z,68.25
2022-10-21T02:48:38.411Z,67.75
2022-10-21T02:51:07.456Z,67.77
2022-10-21T02:53:34.434Z,67.95
2022-10-21T02:56:00.929Z,68.05
2022-10-21T02:58:28.479Z,67.78
2022-10-21T03:00:54.922Z,68.01
2022-10-21T03:03:21.554Z,67.87
2022-10-21T03:05:48.167Z,68.33
2022-10-21T03:08:14.525Z,68.89
2022-10-21T03:10:40.900Z,68.53
2022-10-21T03:13:07.237Z,68.68
2022-10-21T03:15:33.593Z,68.74
2022-10-21T03:17:59.960Z,68.96
2022-10-21T03:20:26.368Z,68.88
2022-10-21T03:22:52.795Z,68.94
2022-10-21T03:25:19.495Z,69.08
2022-10-21T03:27:45.824Z,68.88
2022-10-21T03:30:12.177Z,68.76
2022-10-21T03:32:38.817Z,69.09
2022-10-21T03:35:05.855Z,69.05
2022-10-21T03:37:32.258Z,69.24
2022-10-21T03:39:59.223Z,69.00
2022-10-21T03:42:25.599Z,69.38
2022-10-21T03:44:51.931Z,69.71
2022-10-21T03:47:18.330Z,69.67
2022-10-21T03:49:44.716Z,69.67
2022-10-21T03:52:11.124Z,69.85
2022-10-21T03:54:37.482Z,70.03
2022-10-21T03:57:03.999Z,70.04
2022-10-21T03:59:30.340Z,70.06
2022-10-21T04:01:56.783Z,70.25
2022-10-21T04:04:23.139Z,70.29
2022-10-21T04:06:49.707Z,70.45
2022-10-21T04:09:16.245Z,70.45
2022-10-21T04:11:42.649Z,70.45
2022-10-21T04:14:11.608Z,70.54
2022-10-21T04:16:41.270Z,70.97
2022-10-21T04:19:07.607Z,70.81
2022-10-21T04:21:34.095Z,70.76
2022-10-21T04:24:00.411Z,70.78
2022-10-21T04:26:26.751Z,70.74
2022-10-21T04:28:53.156Z,70.73
2022-10-21T04:31:19.486Z,71.02
2022-10-21T04:33:45.909Z,71.33
2022-10-21T04:36:12.302Z,71.02
2022-10-21T04:38:38.696Z,71.25
2022-10-21T04:41:05.234Z,71.09
2022-10-21T04:43:31.572Z,71.39
2022-10-21T04:45:57.898Z,71.37
2022-10-21T04:48:24.450Z,70.99
2022-10-21T04:50:52.516Z,71.11
2022-10-21T04:53:19.007Z,70.94
2022-10-21T04:55:45.479Z,70.97
2022-10-21T04:58:11.844Z,70.97
2022-10-21T05:00:38.276Z,71.13
2022-10-21T05:03:04.689Z,70.81
2022-10-21T05:05:31.130Z,71.25
2022-10-21T05:07:57.691Z,71.25
2022-10-21T05:10:25.448Z,71.10
2022-10-21T05:12:51.858Z,71.17
2022-10-21T05:15:18.470Z,71.13
2022-10-21T05:17:44.878Z,71.37
2022-10-21T05:20:11.491Z,71.58
2022-10-21T05:22:38.231Z,71.53
2022-10-21T05:25:05.086Z,71.33
2022-10-21T05:27:31.468Z,71.60
2022-10-21T05:29:58.356Z,71.48
2022-10-21T05:32:24.775Z,71.66
2022-10-21T05:34:51.192Z,71.84
2022-10-21T05:37:17.543Z,71.84
2022-10-21T05:39:43.949Z,71.75
2022-10-21T05:42:10.336Z,71.74
2022-10-21T05:44:36.695Z,71.75
2022-10-21T05:47:03.258Z,71.73
2022-10-21T05:49:29.595Z,71.75
2022-10-21T05:51:56.037Z,71.64
2022-10-21T05:54:22.666Z,71.75
2022-10-21T05:56:49.055Z,71.59
2022-10-21T05:59:15.449Z,71.84
2022-10-21T06:01:41.818Z,71.94
2022-10-21T06:04:08.167Z,71.83
2022-10-21T06:06:34.542Z,71.79
2022-10-21T06:09:00.959Z,71.71
2022-10-21T06:11:27.354Z,72.11
2022-10-21T06:13:53.734Z,71.80
2022-10-21T06:16:20.084Z,71.80
2022-10-21T06:18:46.426Z,71.70
2022-10-21T06:21:12.815Z,71.46
2022-10-21T06:23:39.190Z,71.68
2022-10-21T06:26:12.460Z,71.48
2022-10-21T06:28:40.635Z,71.70
2022-10-21T06:31:08.124Z,71.80
2022-10-21T06:33:35.210Z,71.61
2022-10-21T06:36:01.538Z,71.66
2022-10-21T06:38:27.861Z,71.80
2022-10-21T06:41:01.738Z,71.38
2022-10-21T06:43:28.134Z,71.32
2022-10-21T06:46:02.468Z,71.12
2022-10-21T06:48:28.921Z,71.32
2022-10-21T06:51:04.857Z,71.19
2022-10-21T06:53:33.962Z,71.32
2022-10-21T06:56:06.252Z,70.70
2022-10-21T06:58:32.768Z,71.23
2022-10-21T07:00:59.195Z,71.44
2022-10-21T07:03:25.609Z,71.47
2022-10-21T07:05:58.176Z,71.33
2022-10-21T07:08:39.650Z,71.29
2022-10-21T07:11:13.542Z,71.66
2022-10-21T07:13:40.040Z,71.59
2022-10-21T07:16:11.634Z,71.70
2022-10-21T07:18:40.537Z,71.85
2022-10-21T07:21:13.597Z,71.76
2022-10-21T07:23:39.942Z,71.85
2022-10-21T07:26:07.299Z,71.88
2022-10-21T07:28:34.614Z,72.03
2022-10-21T07:31:01.079Z,71.74
2022-10-21T07:33:27.708Z,71.80
2022-10-21T07:36:16.042Z,71.70
2022-10-21T07:38:46.567Z,71.67
2022-10-21T07:41:18.180Z,71.54
2022-10-21T07:43:44.657Z,71.74
2022-10-21T07:46:11.266Z,71.78
2022-10-21T07:48:38.103Z,71.75
2022-10-21T07:51:07.292Z,71.93
2022-10-21T07:53:34.417Z,72.02
2022-10-21T07:56:03.045Z,72.34
2022-10-21T07:58:30.759Z,72.41
2022-10-21T08:00:58.898Z,72.44
2022-10-21T08:03:25.418Z,72.39
2022-10-21T08:05:51.957Z,72.51
2022-10-21T08:08:21.592Z,72.44
2022-10-21T08:13:19.660Z,72.74
2022-10-21T08:15:56.988Z,72.53
2022-10-21T08:18:24.338Z,72.75
2022-10-21T08:20:50.788Z,72.79
2022-10-21T08:23:20.941Z,72.62
2022-10-21T08:25:53.461Z,72.55
2022-10-21T08:28:21.808Z,72.67
2022-10-21T08:30:51.400Z,72.18
2022-10-21T08:33:18.471Z,72.14
2022-10-21T08:35:45.259Z,71.96
2022-10-21T08:38:11.680Z,72.05
2022-10-21T08:40:45.137Z,71.40
2022-10-21T08:43:31.578Z,71.37
2022-10-21T08:46:01.442Z,71.13
2022-10-21T08:48:37.412Z,70.66
2022-10-21T08:51:05.714Z,70.76
2022-10-21T08:53:44.742Z,70.43
2022-10-21T08:56:19.542Z,70.39
2022-10-21T08:58:50.874Z,70.61
2022-10-21T09:01:26.409Z,70.49
2022-10-21T09:03:58.999Z,70.55
2022-10-21T09:06:49.195Z,70.54
2022-10-21T09:09:34.679Z,70.50
2022-10-21T09:12:07.122Z,70.42
2022-10-21T09:14:56.743Z,69.97
2022-10-21T09:17:47.968Z,69.79
2022-10-21T09:20:17.417Z,69.53
2022-10-21T09:22:46.625Z,69.47
2022-10-21T09:25:38.028Z,69.28
2022-10-21T09:28:11.985Z,69.13
2022-10-21T09:30:40.686Z,68.88
2022-10-21T09:33:21.824Z,68.94
2022-10-21T09:35:54.714Z,68.54
2022-10-21T09:38:45.556Z,68.87
2022-10-21T09:43:50.193Z,68.60
2022-10-21T09:46:17.285Z,68.21
2022-10-21T09:51:40.256Z,67.97
2022-10-21T09:54:13.506Z,67.53
2022-10-21T09:56:52.083Z,67.60
2022-10-21T09:59:21.511Z,67.33
2022-10-21T10:01:49.627Z,67.00
2022-10-21T10:04:33.607Z,67.18
2022-10-21T10:07:30.174Z,67.08
2022-10-21T10:09:56.527Z,66.80
2022-10-21T10:12:28.660Z,67.16
2022-10-21T10:14:58.509Z,67.08
2022-10-21T10:17:37.134Z,66.77
2022-10-21T10:20:21.735Z,66.70
2022-10-21T10:22:58.218Z,66.68
2022-10-21T10:25:29.453Z,66.83
2022-10-21T10:28:10.507Z,66.84
2022-10-21T10:30:41.441Z,66.19
2022-10-21T10:33:20.748Z,66.67
2022-10-21T10:35:54.303Z,66.39
2022-10-21T10:38:26.824Z,66.24
2022-10-21T10:40:56.347Z,66.12
2022-10-21T10:43:29.586Z,65.69
2022-10-21T10:46:03.526Z,65.61
2022-10-21T10:48:45.199Z,65.70
2022-10-21T10:51:33.471Z,65.66
2022-10-21T10:54:28.536Z,65.50
2022-10-21T10:56:58.014Z,65.44
2022-10-21T10:59:35.059Z,65.60
2022-10-21T11:02:22.041Z,65.42
2022-10-21T11:05:07.028Z,65.05
2022-10-21T11:07:39.230Z,64.79
2022-10-21T11:10:43.613Z,64.86
2022-10-21T11:13:16.754Z,64.73
2022-10-21T11:16:26.436Z,64.60
2022-10-21T11:19:04.833Z,64.30
2022-10-21T11:21:39.775Z,63.94
2022-10-21T11:24:17.835Z,63.80
2022-10-21T11:26:49.549Z,63.94
2022-10-21T11:29:33.093Z,63.66
2022-10-21T11:32:14.459Z,63.82
2022-10-21T11:34:52.991Z,63.75
2022-10-21T11:37:39.776Z,63.78
2022-10-21T11:40:18.196Z,63.77
2022-10-21T11:42:51.106Z,63.75
2022-10-21T11:45:30.302Z,63.87
2022-10-21T11:48:21.011Z,63.72
2022-10-21T11:51:26.318Z,63.76
2022-10-21T11:54:12.395Z,63.82
2022-10-21T11:56:48.938Z,63.92
2022-10-21T11:59:31.687Z,63.91
2022-10-21T12:02:16.627Z,64.06
2022-10-21T12:04:55.568Z,64.09
2022-10-21T12:07:36.566Z,64.23
2022-10-21T12:10:18.615Z,64.41
2022-10-21T12:12:49.014Z,64.60
2022-10-21T12:15:27.543Z,64.83
2022-10-21T12:17:55.505Z,65.09
2022-10-21T12:20:26.844Z,65.33
2022-10-21T12:22:59.287Z,65.50
2022-10-21T12:25:51.063Z,65.79
2022-10-21T12:28:47.450Z,65.59
2022-10-21T12:31:32.574Z,65.51
2022-10-21T12:33:59.330Z,65.66
2022-10-21T12:36:43.285Z,66.13
2022-10-21T12:39:16.774Z,66.16
2022-10-21T12:41:47.858Z,66.50
2022-10-21T12:44:27.340Z,66.51
2022-10-21T12:46:57.011Z,66.23
2022-10-21T12:49:32.820Z,66.08
2022-10-21T12:52:02.178Z,66.08
2022-10-21T12:54:31.541Z,65.84
2022-10-21T12:57:04.654Z,65.75
2022-10-21T12:59:33.909Z,65.71
2022-10-21T13:02:06.296Z,65.40
2022-10-21T13:04:32.622Z,65.25
2022-10-21T13:07:04.469Z,65.21
2022-10-21T13:10:02.567Z,65.19
2022-10-21T13:12:31.647Z,65.27
2022-10-21T13:15:02.725Z,64.99
2022-10-21T13:17:48.806Z,65.09
2022-10-21T13:20:15.076Z,65.03
2022-10-21T13:23:01.956Z,65.07
2022-10-21T13:25:32.579Z,64.96
2022-10-21T13:28:18.012Z,64.90
2022-10-21T13:30:50.282Z,64.54
2022-10-21T13:33:19.880Z,64.90
2022-10-21T13:35:48.807Z,64.87
2022-10-21T13:38:23.931Z,65.15
2022-10-21T13:40:59.594Z,65.11
2022-10-21T13:43:36.692Z,65.06
2022-10-21T13:46:08.227Z,64.88
2022-10-21T13:48:39.624Z,64.94
2022-10-21T13:51:15.795Z,64.84
2022-10-21T13:53:45.651Z,64.58
2022-10-21T13:56:21.647Z,64.45
2022-10-21T13:58:48.347Z,64.43
2022-10-21T14:01:21.714Z,64.31
2022-10-21T14:06:31.709Z,64.55
2022-10-21T14:09:04.210Z,64.57
2022-10-21T14:11:36.520Z,64.76
2022-10-21T14:14:08.304Z,64.53
2022-10-21T14:16:38.352Z,64.38
2022-10-21T14:19:20.686Z,64.45
2022-10-21T14:21:52.410Z,64.35
2022-10-21T14:24:46.603Z,64.57
2022-10-21T14:27:18.281Z,64.42
2022-10-21T14:29:45.823Z,64.49
2022-10-21T14:32:18.040Z,64.62
2022-10-21T14:35:21.332Z,64.67
2022-10-21T14:37:51.170Z,64.94
2022-10-21T14:40:21.798Z,64.97
2022-10-21T14:42:53.165Z,64.97
2022-10-21T14:45:27.778Z,64.97
2022-10-21T14:48:07.252Z,64.88
2022-10-21T14:50:34.327Z,64.83
2022-10-21T14:53:00.840Z,64.81
2022-10-21T14:55:30.599Z,64.67
2022-10-21T14:58:04.806Z,64.51
2022-10-21T15:00:41.566Z,64.53
2022-10-21T15:03:12.819Z,64.35
2022-10-21T15:05:41.415Z,64.41
2022-10-21T15:08:21.801Z,64.49
2022-10-21T15:10:57.349Z,64.31
2022-10-21T15:13:25.835Z,64.11
2022-10-21T15:15:54.653Z,64.17
2022-10-21T15:18:32.673Z,63.90
2022-10-21T15:21:03.193Z,64.29
2022-10-21T15:23:34.162Z,64.25
2022-10-21T15:26:05.778Z,64.13
2022-10-21T15:28:34.091Z,64.22
2022-10-21T15:31:02.346Z,64.51
2022-10-21T15:33:28.963Z,64.45
2022-10-21T15:36:02.736Z,64.67
2022-10-21T15:38:29.276Z,64.59
2022-10-21T15:40:55.699Z,64.56
2022-10-21T15:43:22.171Z,64.78
2022-10-21T15:45:48.804Z,64.77
2022-10-21T15:48:15.528Z,64.77
2022-10-21T15:50:42.921Z,65.17
2022-10-21T15:53:09.533Z,65.00
2022-10-21T15:55:38.166Z,65.07
2022-10-21T15:58:05.997Z,64.89
2022-10-21T16:00:38.543Z,65.07
2022-10-21T16:03:07.377Z,64.97
2022-10-21T16:05:34.003Z,65.11
2022-10-21T16:08:00.533Z,65.03
2022-10-21T16:10:31.068Z,64.92
2022-10-21T16:12:58.023Z,64.97
2022-10-21T16:15:24.724Z,65.03
2022-10-21T16:17:53.854Z,65.33
2022-10-21T16:20:27.022Z,64.90
2022-10-21T16:22:53.746Z,65.47
2022-10-21T16:25:20.312Z,65.22
2022-10-21T16:28:02.718Z,65.07
2022-10-21T16:30:39.261Z,65.28
2022-10-21T16:33:06.163Z,65.17
2022-10-21T16:35:32.548Z,65.67
2022-10-21T16:37:58.956Z,65.36
2022-10-21T16:40:31.798Z,65.39
2022-10-21T16:42:58.357Z,65.61
2022-10-21T16:45:29.534Z,65.71
2022-10-21T16:47:58.310Z,65.81
2022-10-21T16:50:33.308Z,65.70
2022-10-21T16:53:01.959Z,65.86
2022-10-21T16:55:28.479Z,65.92
2022-10-21T16:57:55.465Z,66.16
2022-10-21T17:00:21.826Z,66.00
2022-10-21T17:02:49.310Z,66.18
2022-10-21T17:05:15.767Z,66.34
2022-10-21T17:07:42.452Z,66.34
2022-10-21T17:10:09.720Z,66.49
2022-10-21T17:12:36.403Z,66.62
2022-10-21T17:15:03.467Z,66.56
2022-10-21T17:17:45.801Z,66.47
2022-10-21T17:20:12.417Z,66.63
2022-10-21T17:22:38.775Z,66.81
2022-10-21T17:25:05.463Z,66.98
2022-10-21T17:27:31.865Z,66.78
2022-10-21T17:29:58.215Z,67.07
2022-10-21T17:32:24.912Z,67.31
2022-10-21T17:34:51.336Z,67.23
2022-10-21T17:37:18.005Z,67.21
2022-10-21T17:39:44.487Z,67.16
2022-10-21T17:42:17.092Z,67.07
2022-10-21T17:44:43.824Z,67.06
2022-10-21T17:47:10.509Z,66.94
2022-10-21T17:49:36.989Z,67.05
2022-10-21T17:52:03.367Z,67.13
2022-10-21T17:54:31.717Z,67.20
2022-10-21T17:57:00.595Z,67.00
2022-10-21T17:59:26.964Z,66.92
2022-10-21T18:01:53.433Z,66.89
2022-10-21T18:04:19.979Z,66.58
2022-10-21T18:06:46.341Z,66.72
2022-10-21T18:09:12.832Z,67.15
2022-10-21T18:11:39.441Z,67.20
2022-10-21T18:14:05.815Z,67.42
2022-10-21T18:16:36.420Z,67.10
2022-10-21T18:19:03.256Z,67.48
2022-10-21T18:21:30.375Z,67.31
2022-10-21T18:23:56.858Z,67.41
2022-10-21T18:26:31.185Z,67.29
2022-10-21T18:29:03.943Z,67.40
2022-10-21T18:31:34.405Z,67.55
2022-10-21T18:34:03.811Z,67.96
2022-10-21T18:36:30.713Z,67.96
2022-10-21T18:38:58.849Z,68.39
2022-10-21T18:41:26.111Z,68.37
2022-10-21T18:44:00.286Z,68.57
2022-10-21T18:46:27.514Z,68.51
2022-10-21T18:48:53.917Z,68.71
2022-10-21T18:51:23.099Z,68.52
2022-10-21T18:53:52.842Z,68.57
2022-10-21T18:56:21.823Z,68.66
2022-10-21T18:58:49.201Z,68.60
2022-10-21T19:01:16.189Z,69.00
2022-10-21T19:03:43.105Z,68.76
2022-10-21T19:06:45.299Z,68.70
2022-10-21T19:09:14.886Z,68.65
2022-10-21T19:11:42.802Z,68.69
2022-10-21T19:14:13.026Z,68.75
2022-10-21T19:16:40.987Z,68.88
2022-10-21T19:19:08.114Z,68.83
2022-10-21T19:21:34.545Z,68.53
2022-10-21T19:24:03.077Z,68.50
2022-10-21T19:26:31.436Z,68.61
2022-10-21T19:29:07.117Z,68.22
2022-10-21T19:31:36.295Z,68.11
2022-10-21T19:34:04.007Z,68.03
2022-10-21T19:36:30.522Z,68.45
2022-10-21T19:38:57.027Z,68.42
2022-10-21T19:41:23.473Z,68.33
2022-10-21T19:43:53.405Z,68.49
2022-10-21T19:46:24.836Z,68.46
2022-10-21T19:48:52.598Z,68.68
2022-10-21T19:51:21.542Z,68.61
2022-10-21T19:53:48.684Z,68.44
2022-10-21T19:56:16.176Z,68.56
2022-10-21T19:58:48.687Z,68.90
2022-10-21T20:01:21.411Z,68.64
2022-10-21T20:03:48.967Z,68.96
2022-10-21T20:06:24.721Z,68.75
2022-10-21T20:08:54.162Z,68.83
2022-10-21T20:11:21.843Z,69.14
2022-10-21T20:13:49.420Z,69.10
2022-10-21T20:16:18.295Z,69.16
2022-10-21T20:18:45.198Z,69.08
2022-10-21T20:21:12.408Z,69.18
2022-10-21T20:23:38.775Z,69.06
2022-10-21T20:26:06.051Z,69.13
2022-10-21T20:28:32.535Z,69.21
2022-10-21T20:31:02.038Z,68.87
2022-10-21T20:33:30.478Z,69.04
2022-10-21T20:35:57.282Z,69.85
2022-10-21T20:38:23.987Z,69.56
2022-10-21T20:41:06.593Z,69.01
2022-10-21T20:43:38.145Z,69.05
2022-10-21T20:46:06.863Z,69.17
2022-10-21T20:48:34.803Z,69.16
2022-10-21T20:51:06.868Z,68.88
2022-10-21T20:53:33.514Z,69.12
2022-10-21T20:56:00.846Z,69.50
2022-10-21T20:58:27.363Z,69.46
2022-10-21T21:00:53.707Z,69.66
2022-10-21T21:03:20.231Z,69.71
2022-10-21T21:05:46.711Z,69.49
2022-10-21T21:08:13.722Z,69.54
2022-10-21T21:10:40.161Z,69.85
2022-10-21T21:13:06.699Z,69.99
2022-10-21T21:15:33.040Z,69.85
2022-10-21T21:18:02.084Z,70.40
2022-10-21T21:20:28.666Z,69.69
2022-10-21T21:22:55.707Z,70.07
2022-10-21T21:25:22.051Z,70.15
2022-10-21T21:27:48.551Z,70.51
2022-10-21T21:30:14.901Z,70.63
2022-10-21T21:32:41.473Z,70.71
2022-10-21T21:35:08.650Z,71.09
2022-10-21T21:37:35.031Z,71.25
2022-10-21T21:40:01.430Z,71.24
2022-10-21T21:42:27.755Z,71.13
2022-10-21T21:44:54.066Z,71.21
2022-10-21T21:47:20.433Z,70.68
2022-10-21T21:49:46.764Z,70.64
2022-10-21T21:52:13.742Z,70.64
2022-10-21T21:54:40.051Z,70.44
2022-10-21T21:59:52.731Z,70.15
2022-10-21T22:02:19.119Z,70.56
2022-10-21T22:04:45.984Z,71.00
2022-10-21T22:07:12.663Z,71.10
2022-10-21T22:09:39.095Z,71.47
2022-10-21T22:12:05.667Z,71.33
2022-10-21T22:14:32.034Z,70.75
2022-10-21T22:16:58.446Z,71.08
2022-10-21T22:19:25.315Z,70.80
2022-10-21T22:21:51.688Z,70.84
2022-10-21T22:24:18.255Z,70.62
2022-10-21T22:26:44.687Z,70.81
2022-10-21T22:29:11.079Z,71.42
2022-10-21T22:31:37.542Z,71.38
2022-10-21T22:34:06.507Z,71.18
2022-10-21T22:36:35.599Z,70.77
2022-10-21T22:39:03.446Z,70.48
2022-10-21T22:41:29.824Z,70.56
2022-10-21T22:43:56.187Z,70.89
2022-10-21T22:46:34.315Z,70.96
2022-10-21T22:49:04.977Z,70.75
2022-10-21T22:51:33.726Z,70.00
2022-10-21T22:54:01.191Z,70.81
2022-10-21T22:56:28.154Z,71.04
2022-10-21T22:58:54.622Z,70.91
2022-10-21T23:01:21.134Z,70.71
2022-10-21T23:03:47.527Z,70.79
2022-10-21T23:06:13.863Z,70.96
2022-10-21T23:08:40.309Z,71.24
2022-10-21T23:11:06.718Z,70.81
2022-10-21T23:13:33.250Z,70.52
2022-10-21T23:15:59.605Z,70.77
2022-10-21T23:18:26.121Z,70.97
2022-10-21T23:20:52.496Z,71.49
2022-10-21T23:23:18.810Z,71.56
2022-10-21T23:25:45.159Z,71.13
2022-10-21T23:28:11.817Z,70.93
2022-10-21T23:30:38.646Z,70.51
2022-10-21T23:33:05.103Z,70.71
2022-10-21T23:35:31.703Z,70.81
2022-10-21T23:37:59.245Z,71.20
2022-10-21T23:40:26.044Z,71.11
2022-10-21T23:42:52.417Z,71.32
2022-10-21T23:45:18.912Z,71.66
2022-10-21T23:47:45.267Z,71.32
2022-10-21T23:50:12.088Z,71.03
2022-10-21T23:52:38.672Z,70.97
2022-10-21T23:55:06.316Z,70.86
2022-10-21T23:57:33.079Z,71.03
2022-10-21T23:59:59.558Z,70.85
